CheckWX is a tool to help pilots better visualize weather data.  It is not intended as a substitute for an official pre-flight weather briefing.

07:31:38 UTC

KCMA TAF
Camarillo Airport
Camarillo, California, USA
KCMA 200535Z 2006/2106 VRB03KT P6SM SKC FM201600 VRB03KT P6SM SKC FM202000 25008KT P6SM SKC FM210300 VRB03KT P6SM SKC

Aug-20@
06:00 UTC

Aug-20 @ 06:00 UTC

Aug-20@
16:00 UTC

Aug-20 @ 16:00 UTC

KCMA 200535Z 2006/2106 VRB03KT P6SM SKC
Wind
  • Variable at 3 KTS
Cloud Levels
  • Clear skies

Aug-20@
16:00 UTC

Aug-20 @ 16:00 UTC

Aug-20@
20:00 UTC

Aug-20 @ 20:00 UTC

FM201600 VRB03KT P6SM SKC

From

From Standard forecast or significant change

Wind
  • Variable at 3 KTS
Cloud Levels
  • Clear skies

Aug-20@
20:00 UTC

Aug-20 @ 20:00 UTC

Aug-21@
03:00 UTC

Aug-21 @ 03:00 UTC

FM202000 25008KT P6SM SKC

From

From Standard forecast or significant change

Wind
  • 250° at 8 KTS
Cloud Levels
  • Clear skies

Aug-21@
03:00 UTC

Aug-21 @ 03:00 UTC

Aug-21@
06:00 UTC

Aug-21 @ 06:00 UTC

FM210300 VRB03KT P6SM SKC

From

From Standard forecast or significant change

Wind
  • Variable at 3 KTS
Cloud Levels
  • Clear skies